Time;durP1;ratioP1;P1;durP2;ratioP2;P2;SDS_P1;SDS_P2;PMS_P1;PMS_P2;Temp;Humidity;BMP_temperature;BMP_pressure;BME280_temperature;BME280_humidity;BME280_pressure;Samples;Min_cycle;Max_cycle;Signal;HPM_P1;HPM_P2
2023/08/17 00:02:59;;;;;;;12.88;7.88;;;27.60;71.00;;;;;;6123857;28;81013;-68
2023/08/17 00:06:00;;;;;;;14.13;8.63;;;27.50;71.00;;;;;;6121518;28;80257;-67
2023/08/17 00:09:01;;;;;;;14.38;7.95;;;27.50;71.10;;;;;;6118780;28;80852;-66
2023/08/17 00:12:01;;;;;;;12.32;7.93;;;27.50;71.20;;;;;;6117017;28;80187;-67
2023/08/17 00:15:02;;;;;;;12.45;7.95;;;27.30;71.70;;;;;;6113124;28;81076;-58
2023/08/17 00:18:02;;;;;;;12.70;8.77;;;27.10;72.90;;;;;;6116908;28;81480;-58
2023/08/17 00:21:03;;;;;;;11.75;7.95;;;27.20;72.80;;;;;;6109955;28;80683;-60
2023/08/17 00:24:04;;;;;;;12.60;8.55;;;27.30;72.90;;;;;;6119227;28;80360;-59
2023/08/17 00:27:04;;;;;;;11.80;7.85;;;27.10;73.20;;;;;;6111911;28;80690;-58
2023/08/17 00:30:05;;;;;;;20.38;9.02;;;27.20;73.20;;;;;;6113143;28;81018;-58
2023/08/17 00:33:05;;;;;;;17.27;8.75;;;27.30;72.80;;;;;;6127664;28;81551;-59
2023/08/17 00:36:06;;;;;;;15.57;8.07;;;27.30;72.80;;;;;;6121329;28;82702;-60
2023/08/17 00:39:07;;;;;;;13.40;8.80;;;27.30;72.70;;;;;;6121960;28;80465;-61
2023/08/17 00:42:08;;;;;;;10.68;7.75;;;27.30;72.60;;;;;;6131485;28;80792;-61
2023/08/17 00:45:09;;;;;;;13.82;8.57;;;27.10;73.10;;;;;;6138028;28;80360;-59
2023/08/17 00:48:10;;;;;;;10.85;7.82;;;27.00;73.70;;;;;;6130272;28;81358;-59
2023/08/17 00:51:10;;;;;;;10.82;7.97;;;27.10;73.40;;;;;;6141653;28;83051;-69
2023/08/17 00:54:11;;;;;;;12.98;7.90;;;27.20;73.30;;;;;;6130814;28;81024;-65
2023/08/17 00:57:11;;;;;;;11.57;7.75;;;27.30;73.60;;;;;;6122688;28;80527;-69
2023/08/17 01:00:13;;;;;;;12.57;8.35;;;27.30;73.30;;;;;;6115591;28;81344;-68
2023/08/17 01:03:13;;;;;;;14.88;8.52;;;27.30;73.20;;;;;;6137232;28;87867;-68
2023/08/17 01:06:14;;;;;;;16.77;9.18;;;27.40;73.20;;;;;;6138370;28;80831;-70
2023/08/17 01:09:14;;;;;;;11.75;7.85;;;27.40;73.00;;;;;;6125643;28;81115;-59
2023/08/17 01:12:15;;;;;;;14.50;8.63;;;27.40;72.70;;;;;;6125202;28;81716;-59
2023/08/17 01:15:16;;;;;;;9.68;7.68;;;27.40;72.60;;;;;;6126632;28;82481;-60
2023/08/17 01:18:16;;;;;;;12.63;8.75;;;27.40;72.50;;;;;;6111886;28;82395;-60
2023/08/17 01:21:18;;;;;;;15.63;8.38;;;27.40;72.40;;;;;;6148326;28;83115;-61
2023/08/17 01:24:18;;;;;;;15.38;8.40;;;27.30;72.60;;;;;;6128649;28;80581;-60
2023/08/17 01:27:19;;;;;;;10.00;8.23;;;26.90;74.20;;;;;;6129154;28;82643;-60
2023/08/17 01:30:19;;;;;;;16.02;8.00;;;26.80;75.60;;;;;;6129352;28;81467;-59
2023/08/17 01:33:20;;;;;;;15.65;8.13;;;26.90;75.60;;;;;;6125737;28;80742;-59
2023/08/17 01:36:20;;;;;;;17.63;8.10;;;26.70;75.80;;;;;;6124299;28;80594;-58
2023/08/17 01:39:21;;;;;;;12.60;8.23;;;26.90;75.60;;;;;;6128288;28;80676;-59
2023/08/17 01:42:21;;;;;;;11.55;8.05;;;27.00;75.30;;;;;;6129617;28;80921;-59
2023/08/17 01:45:22;;;;;;;10.82;8.38;;;27.00;75.10;;;;;;6117868;28;80719;-67
2023/08/17 01:48:22;;;;;;;11.45;8.25;;;26.90;75.00;;;;;;6128793;28;82347;-68
2023/08/17 01:51:24;;;;;;;14.38;8.40;;;26.90;75.10;;;;;;6107822;28;80838;-64
2023/08/17 01:54:24;;;;;;;16.30;8.63;;;27.00;75.10;;;;;;6127719;28;82003;-67
2023/08/17 01:57:25;;;;;;;12.10;8.13;;;27.00;75.00;;;;;;6143452;28;81598;-68
2023/08/17 02:00:26;;;;;;;19.63;9.25;;;27.10;74.80;;;;;;6129515;28;82805;-67
2023/08/17 02:03:28;;;;;;;14.60;8.75;;;27.10;74.70;;;;;;6110584;28;80432;-62
2023/08/17 02:06:29;;;;;;;11.52;8.45;;;27.10;75.30;;;;;;6105877;28;80447;-69
2023/08/17 02:09:30;;;;;;;14.63;8.80;;;27.20;74.40;;;;;;6128663;28;81846;-70
2023/08/17 02:12:32;;;;;;;10.65;8.95;;;26.90;75.00;;;;;;6140612;28;81276;-70
2023/08/17 02:15:32;;;;;;;11.98;8.23;;;26.60;76.10;;;;;;6128116;28;83178;-70
2023/08/17 02:18:34;;;;;;;13.35;8.98;;;26.60;76.60;;;;;;6124754;28;81113;-71
2023/08/17 02:21:35;;;;;;;9.10;8.00;;;26.80;76.20;;;;;;6111819;28;81840;-71
2023/08/17 02:24:35;;;;;;;10.43;7.85;;;26.90;75.80;;;;;;6116774;28;80500;-73
2023/08/17 02:27:36;;;;;;;9.57;7.65;;;26.90;75.00;;;;;;6131879;28;81060;-67
2023/08/17 02:30:37;;;;;;;11.50;7.47;;;27.00;74.90;;;;;;6124640;28;82003;-69
2023/08/17 02:33:38;;;;;;;12.95;8.07;;;27.10;74.90;;;;;;6113252;28;82865;-69
2023/08/17 02:36:39;;;;;;;13.68;8.02;;;27.10;74.60;;;;;;6122958;28;81166;-73
2023/08/17 02:39:40;;;;;;;11.77;8.45;;;27.10;74.50;;;;;;6121761;28;81945;-64
2023/08/17 02:42:41;;;;;;;13.32;8.30;;;27.10;74.40;;;;;;6114636;28;82768;-58
2023/08/17 02:45:41;;;;;;;10.20;7.28;;;27.10;74.10;;;;;;6124623;28;83171;-59
2023/08/17 02:48:42;;;;;;;10.68;8.23;;;27.20;74.00;;;;;;6132961;28;81552;-59
2023/08/17 02:51:42;;;;;;;12.45;8.30;;;27.20;73.70;;;;;;6105468;28;82962;-57
2023/08/17 02:54:43;;;;;;;11.40;8.07;;;27.10;73.50;;;;;;6131149;28;83479;-59
2023/08/17 02:57:44;;;;;;;11.00;7.88;;;27.10;73.40;;;;;;6149762;28;83857;-60
2023/08/17 03:00:44;;;;;;;11.27;8.77;;;27.10;73.20;;;;;;6124508;28;81854;-65
2023/08/17 03:03:45;;;;;;;14.05;8.70;;;27.10;73.30;;;;;;6118155;28;81363;-65
2023/08/17 03:06:46;;;;;;;14.02;9.65;;;27.10;73.60;;;;;;6121526;28;80721;-66
2023/08/17 03:09:46;;;;;;;18.00;9.50;;;27.10;73.90;;;;;;6114823;28;80871;-64
2023/08/17 03:12:47;;;;;;;11.13;8.60;;;27.10;74.00;;;;;;6124552;28;81913;-63
2023/08/17 03:15:47;;;;;;;18.88;9.50;;;27.10;74.00;;;;;;6127660;28;81101;-64
2023/08/17 03:18:49;;;;;;;15.32;8.95;;;27.10;74.10;;;;;;6122138;28;83709;-67
2023/08/17 03:21:50;;;;;;;14.30;9.15;;;27.10;74.10;;;;;;6124969;28;80766;-67
2023/08/17 03:24:50;;;;;;;13.68;9.48;;;26.90;75.10;;;;;;6122975;28;80816;-64
2023/08/17 03:27:51;;;;;;;13.68;9.02;;;26.80;75.70;;;;;;6135853;28;81505;-65
2023/08/17 03:30:51;;;;;;;13.80;9.45;;;26.70;76.30;;;;;;6122045;28;80683;-65
2023/08/17 03:33:53;;;;;;;17.35;9.57;;;26.80;75.80;;;;;;6175933;28;83344;-65
2023/08/17 03:36:54;;;;;;;14.85;8.18;;;26.80;75.90;;;;;;6128198;28;83369;-64
2023/08/17 03:39:55;;;;;;;11.15;8.65;;;26.80;75.90;;;;;;6122495;28;83468;-65
2023/08/17 03:42:55;;;;;;;13.38;8.85;;;26.80;75.90;;;;;;6126494;28;83311;-65
2023/08/17 03:45:56;;;;;;;11.57;8.55;;;26.80;76.20;;;;;;6140786;28;83497;-64
2023/08/17 03:48:56;;;;;;;16.55;9.27;;;26.70;76.30;;;;;;6116887;28;81914;-66
2023/08/17 03:51:57;;;;;;;15.60;9.23;;;26.60;76.90;;;;;;6124594;28;81023;-67
2023/08/17 03:54:57;;;;;;;16.45;9.45;;;26.60;76.80;;;;;;6106105;28;81136;-65
2023/08/17 03:57:58;;;;;;;13.73;9.25;;;26.80;76.60;;;;;;6128637;28;80844;-65
2023/08/17 04:00:58;;;;;;;13.00;9.23;;;26.80;76.30;;;;;;6129333;28;80505;-64
2023/08/17 04:04:02;;;;;;;15.07;9.13;;;26.90;76.10;;;;;;6123846;28;83797;-64
2023/08/17 04:07:03;;;;;;;11.75;8.48;;;26.90;76.00;;;;;;6123665;28;83296;-65
2023/08/17 04:10:04;;;;;;;13.82;8.65;;;26.70;76.00;;;;;;6125791;28;81886;-65
2023/08/17 04:13:04;;;;;;;16.05;9.25;;;26.40;77.30;;;;;;6128900;28;80520;-59
2023/08/17 04:16:05;;;;;;;12.52;9.30;;;26.40;78.00;;;;;;6122586;28;82700;-60
2023/08/17 04:19:06;;;;;;;15.15;8.65;;;26.50;77.30;;;;;;6126760;28;83431;-72
2023/08/17 04:22:06;;;;;;;12.45;9.30;;;26.50;76.20;;;;;;6153412;28;83361;-61
2023/08/17 04:25:10;;;;;;;15.57;8.75;;;26.50;76.10;;;;;;6121284;28;82886;-62
2023/08/17 04:28:11;;;;;;;11.88;7.93;;;26.60;75.50;;;;;;6145398;28;85063;-61
2023/08/17 04:31:11;;;;;;;10.90;8.52;;;26.70;75.20;;;;;;6150710;28;80268;-62
2023/08/17 04:34:14;;;;;;;15.43;9.15;;;26.80;74.90;;;;;;6120168;28;83239;-62
2023/08/17 04:37:14;;;;;;;13.98;8.43;;;26.80;74.60;;;;;;6138530;28;83660;-61
2023/08/17 04:40:15;;;;;;;15.55;10.02;;;26.80;74.60;;;;;;6127198;28;82231;-63
2023/08/17 04:43:16;;;;;;;11.82;8.70;;;26.90;74.20;;;;;;6123989;28;83676;-62
2023/08/17 04:46:17;;;;;;;12.52;9.30;;;26.90;74.00;;;;;;6122581;28;85170;-62
2023/08/17 04:49:18;;;;;;;12.65;8.93;;;27.00;73.80;;;;;;6134939;28;80544;-63
2023/08/17 04:52:18;;;;;;;13.15;8.70;;;27.00;73.60;;;;;;6119133;28;83844;-63
2023/08/17 04:55:19;;;;;;;14.15;8.90;;;27.00;73.60;;;;;;6115149;28;80793;-63
2023/08/17 04:58:19;;;;;;;12.82;9.10;;;27.00;73.60;;;;;;6108353;28;83745;-63
2023/08/17 05:01:20;;;;;;;13.88;9.38;;;27.00;73.60;;;;;;6111030;28;83777;-64
2023/08/17 05:04:21;;;;;;;12.38;8.25;;;27.00;73.70;;;;;;6119601;28;81824;-63
2023/08/17 05:07:22;;;;;;;14.15;8.82;;;27.10;73.50;;;;;;6116771;28;80592;-67
2023/08/17 05:10:22;;;;;;;11.45;8.75;;;27.10;73.80;;;;;;6123908;28;81108;-62
2023/08/17 05:13:23;;;;;;;18.88;9.48;;;27.10;74.10;;;;;;6124726;28;80787;-61
2023/08/17 05:16:24;;;;;;;15.18;9.05;;;27.10;74.00;;;;;;6118440;28;81472;-62
2023/08/17 05:19:25;;;;;;;11.43;8.80;;;27.20;74.00;;;;;;6119227;28;82185;-66
2023/08/17 05:22:26;;;;;;;14.25;9.00;;;27.10;73.90;;;;;;6124893;28;83072;-67
2023/08/17 05:25:29;;;;;;;15.60;8.95;;;27.10;74.00;;;;;;6133222;28;83523;-68
2023/08/17 05:28:29;;;;;;;18.13;9.20;;;27.10;74.40;;;;;;6120663;28;83551;-71
2023/08/17 05:31:30;;;;;;;16.83;9.75;;;27.00;74.80;;;;;;6112546;28;83584;-73
2023/08/17 05:34:31;;;;;;;14.88;9.90;;;27.00;75.00;;;;;;6140462;28;82160;-73
2023/08/17 05:37:32;;;;;;;14.40;10.27;;;27.00;75.50;;;;;;6126259;28;82323;-73
2023/08/17 05:40:33;;;;;;;18.13;9.73;;;26.90;75.70;;;;;;6125089;28;83555;-71
2023/08/17 05:43:33;;;;;;;20.23;10.75;;;27.00;75.90;;;;;;6128663;28;83444;-72
2023/08/17 05:46:34;;;;;;;16.23;9.80;;;27.00;76.20;;;;;;6113971;28;83779;-68
2023/08/17 05:49:34;;;;;;;18.15;9.82;;;26.90;76.10;;;;;;6123830;28;81984;-71
2023/08/17 05:52:35;;;;;;;18.75;10.25;;;26.90;76.60;;;;;;6117959;28;81272;-71
2023/08/17 05:55:35;;;;;;;16.42;10.88;;;27.00;76.50;;;;;;6122031;28;86279;-70
2023/08/17 05:58:36;;;;;;;16.48;10.20;;;27.00;76.80;;;;;;6124678;28;84078;-71
2023/08/17 06:01:36;;;;;;;20.17;11.63;;;26.90;76.80;;;;;;6123897;28;83085;-67
2023/08/17 06:04:37;;;;;;;19.08;10.18;;;27.00;77.50;;;;;;6123832;28;83741;-70
2023/08/17 06:07:37;;;;;;;24.17;10.10;;;27.00;77.60;;;;;;6127551;28;85319;-67
2023/08/17 06:10:38;;;;;;;27.27;10.40;;;27.00;77.70;;;;;;6127577;28;83132;-72
2023/08/17 06:13:38;;;;;;;19.25;10.20;;;27.00;77.90;;;;;;6114377;28;90031;-69
2023/08/17 06:16:39;;;;;;;15.90;10.35;;;27.00;77.60;;;;;;6114311;28;82987;-68
2023/08/17 06:19:39;;;;;;;19.52;10.77;;;27.00;77.90;;;;;;6103374;28;88468;-65
2023/08/17 06:22:40;;;;;;;15.80;9.90;;;27.00;77.90;;;;;;6119631;28;84220;-68
2023/08/17 06:25:40;;;;;;;15.98;10.23;;;27.10;77.50;;;;;;6118260;28;83524;-67
2023/08/17 06:28:41;;;;;;;15.38;9.85;;;27.10;77.10;;;;;;6117775;28;85663;-66
2023/08/17 06:31:42;;;;;;;14.15;8.95;;;27.10;76.90;;;;;;6129406;28;83067;-67
2023/08/17 06:34:42;;;;;;;15.07;10.02;;;27.10;76.10;;;;;;6139979;28;81204;-67
2023/08/17 06:37:43;;;;;;;12.07;9.52;;;27.20;75.70;;;;;;6131189;28;83269;-66
2023/08/17 06:40:43;;;;;;;16.88;9.43;;;27.20;75.20;;;;;;6110970;28;81647;-56
2023/08/17 06:43:44;;;;;;;13.00;9.45;;;27.20;75.20;;;;;;6116223;28;80303;-57
2023/08/17 06:46:45;;;;;;;19.25;9.25;;;27.20;75.00;;;;;;6118562;28;82097;-58
2023/08/17 06:49:45;;;;;;;11.77;9.38;;;27.20;74.80;;;;;;6114885;28;81095;-58
2023/08/17 06:52:46;;;;;;;13.95;8.60;;;27.30;75.50;;;;;;6115100;28;81500;-56
2023/08/17 06:55:46;;;;;;;18.05;9.80;;;27.30;75.20;;;;;;6125302;28;80917;-58
2023/08/17 06:58:47;;;;;;;15.73;9.55;;;27.30;74.40;;;;;;6128793;28;80272;-65
2023/08/17 07:01:47;;;;;;;13.00;9.10;;;27.40;74.30;;;;;;6127596;28;81720;-60
2023/08/17 07:04:48;;;;;;;12.48;8.52;;;27.40;74.10;;;;;;6122795;28;80821;-62
2023/08/17 07:07:48;;;;;;;17.40;8.73;;;27.40;74.60;;;;;;6126189;28;81107;-63
2023/08/17 07:10:49;;;;;;;16.52;10.27;;;27.40;74.70;;;;;;6125925;28;80902;-58
2023/08/17 07:13:50;;;;;;;15.40;9.68;;;27.40;74.50;;;;;;6115824;28;84052;-61
2023/08/17 07:16:50;;;;;;;13.73;9.23;;;27.50;74.20;;;;;;6125833;28;83271;-60
2023/08/17 07:19:51;;;;;;;15.07;9.80;;;27.50;75.10;;;;;;6121851;28;82646;-59
2023/08/17 07:22:51;;;;;;;12.52;9.23;;;27.50;75.70;;;;;;6120591;28;81561;-60
2023/08/17 07:25:52;;;;;;;16.42;8.95;;;27.50;75.20;;;;;;6132815;28;80756;-59
2023/08/17 07:28:52;;;;;;;11.27;8.35;;;27.60;74.70;;;;;;6114158;28;80823;-60
2023/08/17 07:31:54;;;;;;;14.20;9.70;;;27.70;74.50;;;;;;6123231;28;82307;-59
2023/08/17 07:34:54;;;;;;;15.48;9.25;;;27.70;74.10;;;;;;6114146;28;81864;-67
2023/08/17 07:37:55;;;;;;;14.38;9.15;;;27.70;73.40;;;;;;6105783;28;80904;-66
2023/08/17 07:40:55;;;;;;;17.67;9.65;;;27.70;73.50;;;;;;6122895;28;80710;-66
2023/08/17 07:43:56;;;;;;;17.35;9.55;;;27.70;73.40;;;;;;6122923;28;80646;-66
2023/08/17 07:46:57;;;;;;;16.48;9.27;;;27.70;73.60;;;;;;6125980;28;81243;-66
2023/08/17 07:49:57;;;;;;;18.38;8.50;;;27.80;73.20;;;;;;6124133;28;81365;-65
2023/08/17 07:52:58;;;;;;;13.85;8.00;;;27.80;71.70;;;;;;6127811;28;80438;-64
2023/08/17 07:55:58;;;;;;;14.98;9.02;;;27.80;71.10;;;;;;6122414;28;80890;-64
2023/08/17 07:58:59;;;;;;;12.90;9.13;;;27.80;71.70;;;;;;6117053;28;82205;-63
2023/08/17 08:02:00;;;;;;;17.30;9.13;;;27.90;72.00;;;;;;6116859;28;81500;-63
2023/08/17 08:05:00;;;;;;;11.80;8.40;;;27.90;72.10;;;;;;6121752;28;80750;-63
2023/08/17 08:08:01;;;;;;;13.77;8.32;;;27.90;71.10;;;;;;6119823;28;80441;-63
2023/08/17 08:11:04;;;;;;;14.52;8.77;;;28.00;70.70;;;;;;6126014;28;81810;-64
2023/08/17 08:14:04;;;;;;;14.75;8.20;;;28.00;71.70;;;;;;6119212;28;81767;-61
2023/08/17 08:17:05;;;;;;;15.32;7.85;;;28.00;73.10;;;;;;6122349;28;80254;-64
2023/08/17 08:20:06;;;;;;;10.00;7.78;;;28.10;72.50;;;;;;6120039;28;84402;-64
2023/08/17 08:23:06;;;;;;;18.10;8.40;;;28.10;71.20;;;;;;6126727;28;80890;-64
2023/08/17 08:26:07;;;;;;;19.52;9.32;;;28.10;71.30;;;;;;6117332;28;81915;-65
2023/08/17 08:29:07;;;;;;;13.15;8.05;;;28.20;71.30;;;;;;6110222;28;80644;-60
2023/08/17 08:32:08;;;;;;;16.27;9.23;;;28.20;73.10;;;;;;6129701;28;80833;-60
2023/08/17 08:35:08;;;;;;;14.93;8.55;;;28.30;72.40;;;;;;6140632;28;82409;-61
2023/08/17 08:38:10;;;;;;;14.65;8.10;;;28.30;72.90;;;;;;6122843;28;80724;-62
2023/08/17 08:41:10;;;;;;;12.88;8.35;;;28.40;74.70;;;;;;6112573;28;80558;-61
2023/08/17 08:44:11;;;;;;;18.05;9.07;;;28.40;73.60;;;;;;6123285;28;80635;-63
2023/08/17 08:47:11;;;;;;;11.95;9.20;;;28.40;72.50;;;;;;6110003;28;80805;-60
2023/08/17 08:50:12;;;;;;;17.10;10.15;;;28.40;72.60;;;;;;6121449;28;80481;-65
2023/08/17 08:53:12;;;;;;;16.90;10.10;;;28.40;73.00;;;;;;6117940;28;83940;-68
2023/08/17 08:56:13;;;;;;;17.95;10.50;;;28.40;72.40;;;;;;6130776;28;83279;-66
2023/08/17 08:59:13;;;;;;;17.42;9.65;;;28.40;72.10;;;;;;6127233;28;85451;-67
2023/08/17 09:02:14;;;;;;;17.35;8.93;;;28.40;71.30;;;;;;6124266;28;82174;-66
2023/08/17 09:05:15;;;;;;;14.70;9.13;;;28.40;70.80;;;;;;6126462;28;82619;-66
2023/08/17 09:08:16;;;;;;;16.60;8.77;;;28.40;70.60;;;;;;6125938;28;80321;-64
2023/08/17 09:11:16;;;;;;;11.55;8.65;;;28.50;70.10;;;;;;6125491;28;82248;-69
2023/08/17 09:14:17;;;;;;;13.77;7.85;;;28.40;70.40;;;;;;6124782;28;82276;-65
2023/08/17 09:17:17;;;;;;;15.23;9.13;;;28.40;68.90;;;;;;6123666;28;80533;-62
2023/08/17 09:20:18;;;;;;;11.98;7.70;;;28.40;68.50;;;;;;6133300;28;80633;-64
2023/08/17 09:23:19;;;;;;;12.07;7.85;;;28.40;70.80;;;;;;6120401;28;80627;-65
2023/08/17 09:26:20;;;;;;;16.45;8.88;;;28.50;70.30;;;;;;6113745;28;81255;-68
2023/08/17 09:29:21;;;;;;;17.67;8.60;;;28.60;70.50;;;;;;6108709;28;81383;-62
2023/08/17 09:32:21;;;;;;;14.88;9.40;;;28.50;70.40;;;;;;6120511;28;80267;-63
2023/08/17 09:35:22;;;;;;;19.00;9.05;;;28.30;73.00;;;;;;6126801;28;83233;-62
2023/08/17 09:38:22;;;;;;;13.32;7.95;;;28.10;70.70;;;;;;6127817;28;80937;-62
2023/08/17 09:41:23;;;;;;;14.48;8.00;;;27.80;66.40;;;;;;6128570;28;80804;-62
2023/08/17 09:44:23;;;;;;;16.80;8.30;;;27.60;64.10;;;;;;6129146;28;80430;-65
2023/08/17 09:47:24;;;;;;;11.35;7.60;;;27.40;62.50;;;;;;6128729;28;80739;-67
2023/08/17 09:50:25;;;;;;;15.30;8.15;;;27.20;61.30;;;;;;6128602;28;81515;-68
2023/08/17 09:53:25;;;;;;;10.43;7.90;;;27.10;60.40;;;;;;6127140;28;81890;-68
2023/08/17 09:56:26;;;;;;;12.10;7.70;;;26.90;59.90;;;;;;6126480;28;80288;-66
2023/08/17 09:59:27;;;;;;;13.70;7.75;;;26.90;59.70;;;;;;6132991;28;82208;-71
2023/08/17 10:02:27;;;;;;;10.90;8.02;;;26.80;59.30;;;;;;6126116;28;83247;-68
2023/08/17 10:05:28;;;;;;;14.20;7.97;;;26.70;59.00;;;;;;6124173;28;81474;-68
2023/08/17 10:08:28;;;;;;;12.48;7.50;;;26.60;58.40;;;;;;6124543;28;80202;-66
2023/08/17 10:11:29;;;;;;;9.75;6.45;;;26.50;58.10;;;;;;6128393;28;81387;-68
2023/08/17 10:14:33;;;;;;;13.40;7.07;;;26.50;57.80;;;;;;6129361;28;81312;-67
2023/08/17 10:17:34;;;;;;;11.70;7.35;;;26.40;57.60;;;;;;6121846;28;81985;-64
2023/08/17 10:20:35;;;;;;;15.32;7.45;;;26.40;57.80;;;;;;6119918;28;80462;-61
2023/08/17 10:23:35;;;;;;;18.52;8.15;;;26.30;57.80;;;;;;6124311;28;81375;-62
2023/08/17 10:26:36;;;;;;;11.57;7.82;;;26.30;58.00;;;;;;6125516;28;82049;-60
2023/08/17 10:29:36;;;;;;;12.02;7.15;;;26.20;62.40;;;;;;6115985;28;81106;-59
2023/08/17 10:32:37;;;;;;;12.07;7.85;;;26.50;66.50;;;;;;6120666;28;80853;-57
2023/08/17 10:35:37;;;;;;;12.75;7.85;;;26.70;66.50;;;;;;6122369;28;83832;-59
2023/08/17 10:38:38;;;;;;;13.73;7.80;;;26.90;66.70;;;;;;6126170;28;80533;-59
2023/08/17 10:41:38;;;;;;;15.20;7.82;;;27.00;66.60;;;;;;6126260;28;80747;-59
2023/08/17 10:44:40;;;;;;;15.10;7.28;;;27.10;66.90;;;;;;6130866;28;80441;-58
2023/08/17 10:47:40;;;;;;;10.82;6.88;;;27.20;67.70;;;;;;6129706;28;80923;-60
2023/08/17 10:50:41;;;;;;;11.07;7.05;;;27.30;67.90;;;;;;6120172;28;81069;-58
2023/08/17 10:53:44;;;;;;;12.88;6.95;;;27.40;67.80;;;;;;6118173;28;82479;-61
2023/08/17 10:56:45;;;;;;;9.73;6.38;;;27.40;69.90;;;;;;6113380;28;80571;-60
2023/08/17 10:59:45;;;;;;;11.95;6.82;;;27.50;67.80;;;;;;6108469;28;81278;-62
2023/08/17 11:02:46;;;;;;;9.63;6.88;;;27.50;68.60;;;;;;6115900;28;80354;-60
2023/08/17 11:05:48;;;;;;;10.32;6.60;;;27.50;68.10;;;;;;6125111;28;81087;-60
2023/08/17 11:08:48;;;;;;;9.18;6.72;;;27.60;67.70;;;;;;6123069;28;83031;-61
2023/08/17 11:11:49;;;;;;;10.40;6.70;;;27.70;68.20;;;;;;6124070;28;81085;-61
2023/08/17 11:14:49;;;;;;;12.02;7.03;;;27.70;68.00;;;;;;6127628;28;83720;-69
2023/08/17 11:17:50;;;;;;;10.32;6.32;;;27.80;68.00;;;;;;6131474;28;82432;-69
2023/08/17 11:20:50;;;;;;;13.32;6.90;;;27.80;68.10;;;;;;6126221;28;80393;-67
2023/08/17 11:23:51;;;;;;;9.77;6.78;;;27.90;68.10;;;;;;6121441;28;80350;-67
2023/08/17 11:26:51;;;;;;;9.40;6.07;;;27.90;68.10;;;;;;6131471;28;82919;-68
2023/08/17 11:29:52;;;;;;;8.68;6.20;;;28.00;68.10;;;;;;6118187;28;80322;-72
2023/08/17 11:32:52;;;;;;;8.82;6.35;;;28.00;68.00;;;;;;6143432;28;80354;-69
2023/08/17 11:35:53;;;;;;;8.85;6.65;;;28.00;68.20;;;;;;6136520;28;80913;-61
2023/08/17 11:38:53;;;;;;;9.52;6.00;;;28.10;68.60;;;;;;6125001;28;82719;-59
2023/08/17 11:41:54;;;;;;;8.32;6.30;;;28.10;68.40;;;;;;6136057;28;80189;-60
2023/08/17 11:44:54;;;;;;;7.20;5.80;;;28.20;68.40;;;;;;6141499;28;80788;-57
2023/08/17 11:47:55;;;;;;;10.68;6.05;;;28.20;68.70;;;;;;6123516;28;80724;-59
2023/08/17 11:50:55;;;;;;;6.72;5.57;;;28.20;69.00;;;;;;6121061;28;80582;-61
2023/08/17 11:53:56;;;;;;;11.80;6.20;;;28.10;67.90;;;;;;6127496;28;80999;-56
2023/08/17 11:56:56;;;;;;;7.78;5.53;;;27.80;64.10;;;;;;6129896;28;80756;-59
2023/08/17 11:59:57;;;;;;;6.10;4.60;;;27.60;61.40;;;;;;6117087;28;81174;-58
2023/08/17 12:02:57;;;;;;;8.32;5.47;;;27.40;59.50;;;;;;6119531;28;82466;-58
2023/08/17 12:05:58;;;;;;;8.05;4.40;;;27.20;58.60;;;;;;6121181;28;81443;-57
2023/08/17 12:08:58;;;;;;;6.05;4.20;;;27.00;60.60;;;;;;6114783;28;80639;-59
2023/08/17 12:11:59;;;;;;;8.65;4.70;;;27.10;63.30;;;;;;6116041;28;80807;-58
2023/08/17 12:15:00;;;;;;;5.15;4.20;;;27.20;63.70;;;;;;6120451;28;80732;-60
2023/08/17 12:18:00;;;;;;;10.40;4.25;;;27.50;63.40;;;;;;6114984;28;80464;-57
2023/08/17 12:21:01;;;;;;;11.32;4.32;;;27.60;63.00;;;;;;6116546;28;80723;-59
2023/08/17 12:24:02;;;;;;;10.88;4.20;;;27.70;62.70;;;;;;6122559;28;80020;-59
2023/08/17 12:27:02;;;;;;;8.48;4.10;;;27.70;63.70;;;;;;6133730;28;80680;-60
2023/08/17 12:30:03;;;;;;;10.35;3.92;;;27.60;64.00;;;;;;6111908;28;81025;-61
2023/08/17 12:33:03;;;;;;;7.63;3.80;;;27.60;64.10;;;;;;6127486;28;82224;-61
2023/08/17 12:36:04;;;;;;;10.68;3.60;;;27.40;64.00;;;;;;6137836;28;80047;-61
2023/08/17 12:39:04;;;;;;;8.50;3.75;;;27.30;63.80;;;;;;6130743;28;82904;-63
2023/08/17 12:42:05;;;;;;;5.60;3.75;;;27.20;63.70;;;;;;6130216;28;81597;-63
2023/08/17 12:45:05;;;;;;;4.35;3.38;;;27.10;64.20;;;;;;6130077;28;81386;-63
2023/08/17 12:48:06;;;;;;;7.00;3.30;;;27.10;65.20;;;;;;6123143;28;80495;-57
2023/08/17 12:51:06;;;;;;;8.57;2.95;;;27.00;65.30;;;;;;6123148;28;80846;-57
2023/08/17 12:54:07;;;;;;;7.22;3.33;;;26.90;65.80;;;;;;6119313;28;80929;-59
2023/08/17 12:57:07;;;;;;;5.88;3.53;;;26.80;66.00;;;;;;6124968;28;80488;-60
2023/08/17 13:00:08;;;;;;;6.22;3.47;;;26.70;65.80;;;;;;6128180;28;81056;-62
2023/08/17 13:03:09;;;;;;;5.60;3.03;;;26.60;65.80;;;;;;6129169;28;80514;-58
2023/08/17 13:06:09;;;;;;;5.90;3.22;;;26.60;65.70;;;;;;6127621;28;81061;-58
2023/08/17 13:09:10;;;;;;;7.20;3.83;;;26.60;66.10;;;;;;6123955;28;82586;-59
2023/08/17 13:12:10;;;;;;;5.57;3.40;;;26.60;66.20;;;;;;6121738;28;81220;-58
2023/08/17 13:15:11;;;;;;;14.95;3.40;;;26.70;67.00;;;;;;6124217;28;80452;-60
2023/08/17 13:18:11;;;;;;;5.22;3.90;;;26.80;66.70;;;;;;6124571;28;82969;-59
2023/08/17 13:21:15;;;;;;;6.32;3.20;;;26.80;65.80;;;;;;6110310;28;80559;-60
2023/08/17 13:24:16;;;;;;;6.05;3.53;;;26.80;65.40;;;;;;6111672;28;80251;-58
2023/08/17 13:27:16;;;;;;;4.53;2.63;;;26.80;65.30;;;;;;6120312;28;80268;-59
2023/08/17 13:30:17;;;;;;;5.55;3.15;;;26.80;65.30;;;;;;6117174;28;80321;-60
2023/08/17 13:33:17;;;;;;;8.27;3.47;;;26.80;65.30;;;;;;6132083;28;80417;-60
2023/08/17 13:36:18;;;;;;;4.30;3.15;;;26.80;65.50;;;;;;6136145;28;81440;-59
2023/08/17 13:39:18;;;;;;;4.55;3.33;;;26.80;65.80;;;;;;6120141;28;80762;-59
2023/08/17 13:42:19;;;;;;;4.88;2.95;;;26.90;66.00;;;;;;6115288;28;80665;-61
2023/08/17 13:45:19;;;;;;;5.00;3.05;;;26.90;65.30;;;;;;6121433;28;81357;-61
2023/08/17 13:48:20;;;;;;;4.72;3.17;;;26.90;65.20;;;;;;6125827;28;84125;-59
2023/08/17 13:51:20;;;;;;;5.00;3.10;;;27.00;65.80;;;;;;6114363;28;80782;-59
2023/08/17 13:54:21;;;;;;;5.72;3.00;;;27.10;65.80;;;;;;6119370;28;81175;-59
2023/08/17 13:57:21;;;;;;;5.88;3.22;;;27.10;65.50;;;;;;6098092;28;83522;-60
2023/08/17 14:00:22;;;;;;;5.80;3.38;;;27.10;65.30;;;;;;6108084;28;80424;-57
2023/08/17 14:03:22;;;;;;;6.53;3.35;;;27.20;65.60;;;;;;6108231;28;81171;-56
2023/08/17 14:06:23;;;;;;;3.65;2.78;;;27.20;65.00;;;;;;6115963;28;81268;-57
2023/08/17 14:09:23;;;;;;;5.82;3.13;;;27.20;64.70;;;;;;6128802;28;81165;-56
2023/08/17 14:12:24;;;;;;;7.60;3.47;;;27.20;64.80;;;;;;6132208;28;80382;-56
2023/08/17 14:15:25;;;;;;;5.75;3.15;;;27.20;65.00;;;;;;6125109;28;82852;-59
2023/08/17 14:18:25;;;;;;;5.93;3.60;;;27.30;65.20;;;;;;6135304;28;80613;-69
2023/08/17 14:21:26;;;;;;;4.07;2.78;;;27.30;65.40;;;;;;6122821;28;80878;-65
2023/08/17 14:24:26;;;;;;;4.20;3.08;;;27.30;65.40;;;;;;6115672;28;80901;-64
2023/08/17 14:27:27;;;;;;;3.78;3.20;;;27.30;65.70;;;;;;6124245;28;80760;-63
2023/08/17 14:30:27;;;;;;;5.95;3.53;;;27.40;66.00;;;;;;6122067;28;80778;-67
2023/08/17 14:33:28;;;;;;;4.25;3.22;;;27.40;66.50;;;;;;6145403;28;80651;-74
2023/08/17 14:36:28;;;;;;;4.40;3.72;;;27.40;66.70;;;;;;6128543;28;80917;-54
2023/08/17 14:39:29;;;;;;;5.50;3.67;;;27.40;66.70;;;;;;6121111;28;80384;-52
2023/08/17 14:42:29;;;;;;;6.18;2.97;;;27.40;66.60;;;;;;6122611;28;81052;-57
2023/08/17 14:45:30;;;;;;;5.43;2.85;;;27.40;65.70;;;;;;6124691;28;80383;-55
2023/08/17 14:48:30;;;;;;;3.97;2.83;;;27.40;65.50;;;;;;6110114;28;81452;-54
2023/08/17 14:51:31;;;;;;;3.85;3.03;;;27.20;65.40;;;;;;6120854;28;80886;-50
2023/08/17 14:54:31;;;;;;;7.63;3.10;;;27.20;65.30;;;;;;6117057;28;80335;-56
2023/08/17 14:57:32;;;;;;;6.53;3.30;;;27.20;65.50;;;;;;6116627;28;80420;-56
2023/08/17 15:00:32;;;;;;;11.82;3.63;;;27.10;65.70;;;;;;6116415;28;80297;-54
2023/08/17 15:03:33;;;;;;;4.38;3.30;;;27.10;65.90;;;;;;6114212;28;81829;-53
2023/08/17 15:06:33;;;;;;;5.85;2.92;;;27.10;66.10;;;;;;6119152;28;83023;-54
2023/08/17 15:09:34;;;;;;;3.05;2.75;;;27.10;66.20;;;;;;6119910;28;80893;-56
2023/08/17 15:12:34;;;;;;;4.05;3.10;;;27.10;66.30;;;;;;6120845;28;81858;-56
2023/08/17 15:15:36;;;;;;;6.22;2.83;;;27.10;66.40;;;;;;6120429;28;80494;-58
2023/08/17 15:18:37;;;;;;;4.05;3.30;;;27.00;66.60;;;;;;6130280;28;80496;-59
2023/08/17 15:21:38;;;;;;;4.57;3.30;;;27.00;66.60;;;;;;6118171;28;81443;-58
2023/08/17 15:24:38;;;;;;;6.10;3.83;;;27.00;66.70;;;;;;6118745;28;80208;-59
2023/08/17 15:27:39;;;;;;;4.70;3.22;;;26.90;66.80;;;;;;6120978;28;80546;-58
2023/08/17 15:30:39;;;;;;;7.22;3.03;;;26.90;66.80;;;;;;6124558;28;80807;-59